• vieta
  • image
  • image
  • image

Šiandien

Pirmadienis, 26 Sausis 2015

Orų prognozė

Šiauliai -3 °C
   

Orų prognozė aviacijai

[source: ADDS]
METAR
EYSA 252350Z AUTO 32004KT 6000NDV BR FEW004 SCT028 BKN042 M03/M03 Q1021 R32R/2///95 R32L/2///95 =
TAF
TAF EYSA 252300Z 2600/2609 33006KT 5000 BR BKN005 TEMPO 2600/2604 1500 FZDZ OVC003 TEMPO 2604/2609 0600 FZFG VV002 =
SR / SS: 06:28 / 14:52 UTC (EYSA 2015-01-26)

Lankytojai

Mes turime 10 svečius online

tic logo lt